createdAt,value
2022-08-07T00:01:44.755Z,21.80
2022-08-07T00:04:15.819Z,21.76
2022-08-07T00:06:51.601Z,21.74
2022-08-07T00:09:22.836Z,21.73
2022-08-07T00:11:56.134Z,21.74
2022-08-07T00:14:31.396Z,21.75
2022-08-07T00:17:02.525Z,21.81
2022-08-07T00:20:00.156Z,21.90
2022-08-07T00:22:24.875Z,21.95
2022-08-07T00:25:16.481Z,21.95
2022-08-07T00:27:52.609Z,21.96
2022-08-07T00:30:27.267Z,21.95
2022-08-07T00:32:58.241Z,21.92
2022-08-07T00:35:29.886Z,21.94
2022-08-07T00:38:00.275Z,21.95
2022-08-07T00:40:39.837Z,21.95
2022-08-07T00:44:01.714Z,21.97
2022-08-07T00:46:03.030Z,21.98
2022-08-07T00:48:31.782Z,21.99
2022-08-07T00:51:03.000Z,21.98
2022-08-07T00:53:39.387Z,21.97
2022-08-07T00:56:19.384Z,21.97
2022-08-07T00:58:49.850Z,21.96
2022-08-07T01:01:20.705Z,21.94
2022-08-07T01:03:55.639Z,21.91
2022-08-07T01:06:29.502Z,21.88
2022-08-07T01:09:01.185Z,21.82
2022-08-07T01:12:10.211Z,21.74
2022-08-07T01:14:28.416Z,21.69
2022-08-07T01:16:59.379Z,21.69
2022-08-07T01:19:32.540Z,21.69
2022-08-07T01:22:08.808Z,21.69
2022-08-07T01:24:42.288Z,21.66
2022-08-07T01:27:19.864Z,21.64
2022-08-07T01:29:50.797Z,21.59
2022-08-07T01:32:22.468Z,21.54
2022-08-07T01:34:54.807Z,21.46
2022-08-07T01:37:24.716Z,21.41
2022-08-07T01:40:00.337Z,21.33
2022-08-07T01:42:40.180Z,21.27
2022-08-07T01:45:36.212Z,21.22
2022-08-07T01:48:29.897Z,21.13
2022-08-07T01:51:24.340Z,21.04
2022-08-07T01:54:12.206Z,20.96
2022-08-07T01:56:51.470Z,20.88
2022-08-07T01:59:47.321Z,20.80
2022-08-07T02:03:18.012Z,20.71
2022-08-07T02:05:48.267Z,20.60
2022-08-07T02:08:28.287Z,20.54
2022-08-07T02:11:00.655Z,20.49
2022-08-07T02:13:56.637Z,20.45
2022-08-07T02:16:28.634Z,20.43
2022-08-07T02:20:06.593Z,20.41
2022-08-07T02:21:59.855Z,20.37
2022-08-07T02:24:31.972Z,20.34
2022-08-07T02:27:03.323Z,20.30
2022-08-07T02:29:43.340Z,20.25
2022-08-07T02:32:23.218Z,20.21
2022-08-07T02:34:53.851Z,20.18
2022-08-07T02:37:26.837Z,20.14
2022-08-07T02:40:02.561Z,20.14
2022-08-07T02:42:48.006Z,20.09
2022-08-07T02:46:00.804Z,20.07
2022-08-07T02:48:10.117Z,20.03
2022-08-07T02:50:48.794Z,19.98
2022-08-07T02:53:27.374Z,19.91
2022-08-07T02:56:02.591Z,19.87
2022-08-07T02:58:36.049Z,19.80
2022-08-07T03:01:19.095Z,19.75
2022-08-07T03:04:03.450Z,19.71
2022-08-07T03:06:37.386Z,19.68
2022-08-07T03:09:11.360Z,19.66
2022-08-07T03:11:52.249Z,19.65
2022-08-07T03:14:28.855Z,19.63
2022-08-07T03:16:58.370Z,19.62
2022-08-07T03:19:29.098Z,19.62
2022-08-07T03:22:07.407Z,19.63
2022-08-07T03:24:48.800Z,19.65
2022-08-07T03:27:30.355Z,19.65
2022-08-07T03:30:03.793Z,19.65
2022-08-07T03:32:48.910Z,19.65
2022-08-07T03:35:26.245Z,19.63
2022-08-07T03:38:01.948Z,19.61
2022-08-07T03:40:36.226Z,19.60
2022-08-07T03:43:13.706Z,19.59
2022-08-07T03:45:47.887Z,19.58
2022-08-07T03:48:21.365Z,19.56
2022-08-07T03:50:52.157Z,19.54
2022-08-07T03:54:01.883Z,19.51
2022-08-07T03:56:32.597Z,19.50
2022-08-07T03:59:09.518Z,19.49
2022-08-07T04:01:43.312Z,19.49
2022-08-07T04:04:19.314Z,19.52
2022-08-07T04:06:53.062Z,19.57
2022-08-07T04:09:24.848Z,19.62
2022-08-07T04:12:25.003Z,19.67
2022-08-07T04:14:47.733Z,19.70
2022-08-07T04:17:21.512Z,19.77
2022-08-07T04:19:55.407Z,19.83
2022-08-07T04:22:29.650Z,19.87
2022-08-07T04:25:11.900Z,19.91
2022-08-07T04:27:44.278Z,19.96
2022-08-07T04:30:35.474Z,20.04
2022-08-07T04:33:20.277Z,20.15
2022-08-07T04:35:53.933Z,20.25
2022-08-07T04:38:28.382Z,20.35
2022-08-07T04:40:58.299Z,20.46
2022-08-07T04:44:12.082Z,20.57
2022-08-07T04:47:04.947Z,20.71
2022-08-07T04:49:38.784Z,20.88
2022-08-07T04:52:27.599Z,21.01
2022-08-07T04:55:14.856Z,21.13
2022-08-07T04:58:24.301Z,21.26
2022-08-07T05:01:30.060Z,21.42
2022-08-07T05:04:34.121Z,21.58
2022-08-07T05:07:44.250Z,21.75
2022-08-07T05:10:29.414Z,21.94
2022-08-07T05:13:09.786Z,22.07
2022-08-07T05:15:51.220Z,22.25
2022-08-07T05:18:35.673Z,22.42
2022-08-07T05:21:06.328Z,22.58
2022-08-07T05:23:47.623Z,22.78
2022-08-07T05:26:24.177Z,22.99
2022-08-07T05:29:04.237Z,23.21
2022-08-07T05:31:38.718Z,23.42
2022-08-07T05:34:15.653Z,23.65
2022-08-07T05:36:52.805Z,23.89
2022-08-07T05:40:16.858Z,24.11
2022-08-07T05:42:34.668Z,24.29
2022-08-07T05:45:25.808Z,24.44
2022-08-07T05:48:03.956Z,24.69
2022-08-07T05:51:10.719Z,24.98
2022-08-07T05:54:13.063Z,25.19
2022-08-07T05:56:30.211Z,25.45
2022-08-07T05:59:02.758Z,25.72
2022-08-07T06:01:35.905Z,25.99
2022-08-07T06:04:08.591Z,26.25
2022-08-07T06:06:46.303Z,26.51
2022-08-07T06:09:17.625Z,26.75
2022-08-07T06:11:48.989Z,27.00
2022-08-07T06:14:21.179Z,27.22
2022-08-07T06:16:56.171Z,27.40
2022-08-07T06:19:52.051Z,27.57
2022-08-07T06:22:38.901Z,27.84
2022-08-07T06:25:22.708Z,28.10
2022-08-07T06:28:01.610Z,28.33
2022-08-07T06:30:37.449Z,28.60
2022-08-07T06:33:16.760Z,28.88
2022-08-07T06:36:12.122Z,29.09
2022-08-07T06:38:58.635Z,29.34
2022-08-07T06:45:44.260Z,29.94
2022-08-07T06:48:13.607Z,30.16
2022-08-07T06:50:48.812Z,30.38
2022-08-07T06:54:11.988Z,30.52
2022-08-07T06:56:14.828Z,30.61
2022-08-07T07:00:14.657Z,30.65
2022-08-07T07:01:43.690Z,30.80
2022-08-07T07:04:32.902Z,30.99
2022-08-07T07:07:10.423Z,31.08
2022-08-07T07:09:50.862Z,30.98
2022-08-07T07:12:41.861Z,31.00
2022-08-07T07:15:35.877Z,31.16
2022-08-07T07:18:47.381Z,31.33
2022-08-07T07:21:13.541Z,31.50
2022-08-07T07:24:39.426Z,31.54
2022-08-07T07:27:15.442Z,31.50
2022-08-07T07:30:09.277Z,31.55
2022-08-07T07:32:40.606Z,31.68
2022-08-07T07:35:12.968Z,31.91
2022-08-07T07:37:49.459Z,32.20
2022-08-07T07:40:28.659Z,32.50
2022-08-07T07:43:11.626Z,32.78
2022-08-07T07:46:37.328Z,32.89
2022-08-07T07:50:35.390Z,32.89
2022-08-07T07:52:11.061Z,32.92
2022-08-07T07:54:44.287Z,33.03
2022-08-07T07:57:52.459Z,32.96
2022-08-07T08:00:15.072Z,33.03
2022-08-07T08:03:05.437Z,33.18
2022-08-07T08:05:50.603Z,33.17
2022-08-07T08:08:34.764Z,33.16
2022-08-07T08:11:08.625Z,33.25
2022-08-07T08:13:54.660Z,33.42
2022-08-07T08:16:38.969Z,33.64
2022-08-07T08:20:18.852Z,34.02
2022-08-07T08:22:19.936Z,34.38
2022-08-07T08:25:24.683Z,34.73
2022-08-07T08:28:06.127Z,34.74
2022-08-07T08:30:51.431Z,34.52
2022-08-07T08:33:28.811Z,34.44
2022-08-07T08:36:03.668Z,34.53
2022-08-07T08:38:41.106Z,34.76
2022-08-07T08:41:31.533Z,34.93
2022-08-07T08:44:45.697Z,34.95
2022-08-07T08:47:52.474Z,35.03
2022-08-07T08:50:34.995Z,34.98
2022-08-07T08:53:59.967Z,34.96
2022-08-07T08:56:36.402Z,34.81
2022-08-07T08:59:50.460Z,34.77
2022-08-07T09:02:37.573Z,34.99
2022-08-07T09:05:37.457Z,35.19
2022-08-07T09:08:33.813Z,35.39
2022-08-07T09:11:24.208Z,35.54
2022-08-07T09:18:30.394Z,35.90
2022-08-07T09:21:33.949Z,35.72
2022-08-07T09:30:03.470Z,35.17
2022-08-07T09:31:39.001Z,35.30
2022-08-07T09:38:54.849Z,36.04
2022-08-07T09:41:43.259Z,36.04
2022-08-07T09:44:32.991Z,36.02
2022-08-07T09:48:02.968Z,36.00
2022-08-07T09:52:09.295Z,35.72
2022-08-07T09:55:16.994Z,35.46
2022-08-07T09:58:36.355Z,35.37
2022-08-07T10:06:00.096Z,35.42
2022-08-07T10:08:51.755Z,35.54
2022-08-07T10:12:11.778Z,35.76
2022-08-07T10:35:55.183Z,35.97
2022-08-07T10:38:51.211Z,35.13
2022-08-07T10:41:53.835Z,34.26
2022-08-07T10:49:49.537Z,33.51
2022-08-07T10:56:49.410Z,33.99
2022-08-07T10:59:47.330Z,34.64
2022-08-07T11:02:37.980Z,35.25
2022-08-07T11:05:50.357Z,35.47
2022-08-07T11:08:49.568Z,35.68
2022-08-07T11:12:07.406Z,36.14
2022-08-07T11:15:00.420Z,36.38
2022-08-07T11:38:12.437Z,36.95
2022-08-07T11:45:53.288Z,37.37
2022-08-07T11:48:44.180Z,37.47
2022-08-07T11:51:53.353Z,36.80
2022-08-07T11:54:22.175Z,36.40
2022-08-07T11:57:59.971Z,36.36
2022-08-07T12:00:41.665Z,36.20
2022-08-07T12:04:07.456Z,36.00
2022-08-07T12:06:51.468Z,35.86
2022-08-07T12:09:34.400Z,35.79
2022-08-07T12:12:11.105Z,35.93
2022-08-07T12:14:51.437Z,36.09
2022-08-07T12:17:58.583Z,36.31
2022-08-07T12:20:36.544Z,36.40
2022-08-07T12:23:37.251Z,36.50
2022-08-07T12:26:30.885Z,36.64
2022-08-07T12:29:38.204Z,36.68
2022-08-07T12:32:03.771Z,36.81
2022-08-07T12:34:37.072Z,36.72
2022-08-07T12:37:17.018Z,36.39
2022-08-07T12:39:55.325Z,36.10
2022-08-07T12:42:28.613Z,35.73
2022-08-07T12:45:27.657Z,35.49
2022-08-07T12:48:28.317Z,35.38
2022-08-07T12:51:13.257Z,35.49
2022-08-07T12:54:36.332Z,35.57
2022-08-07T12:56:50.915Z,35.94
2022-08-07T12:59:30.484Z,36.16
2022-08-07T13:02:41.645Z,36.38
2022-08-07T13:06:02.460Z,36.54
2022-08-07T13:08:32.917Z,36.86
2022-08-07T13:11:07.463Z,37.17
2022-08-07T13:14:02.355Z,37.43
2022-08-07T13:16:39.624Z,37.59
2022-08-07T13:19:46.203Z,37.69
2022-08-07T13:22:31.296Z,37.58
2022-08-07T13:25:29.243Z,37.66
2022-08-07T13:28:10.679Z,37.55
2022-08-07T13:31:13.225Z,37.42
2022-08-07T13:34:31.337Z,37.49
2022-08-07T13:36:50.690Z,37.55
2022-08-07T13:40:32.801Z,37.66
2022-08-07T13:42:25.884Z,37.70
2022-08-07T13:46:06.714Z,37.70
2022-08-07T13:48:06.327Z,37.77
2022-08-07T13:50:44.220Z,37.85
2022-08-07T13:53:21.782Z,37.50
2022-08-07T13:55:54.771Z,36.79
2022-08-07T13:58:54.219Z,36.25
2022-08-07T14:01:27.958Z,35.84
2022-08-07T14:04:16.717Z,35.57
2022-08-07T14:06:52.546Z,35.25
2022-08-07T14:10:02.333Z,34.98
2022-08-07T14:12:27.606Z,34.73
2022-08-07T14:15:05.009Z,34.53
2022-08-07T14:18:24.113Z,34.23
2022-08-07T14:20:41.785Z,33.92
2022-08-07T14:23:31.449Z,33.59
2022-08-07T14:26:28.185Z,33.25
2022-08-07T14:29:08.837Z,33.00
2022-08-07T14:31:42.773Z,32.89
2022-08-07T14:34:29.552Z,32.78
2022-08-07T14:37:03.384Z,32.53
2022-08-07T14:40:16.827Z,32.29
2022-08-07T14:42:32.382Z,32.11
2022-08-07T14:45:21.504Z,32.14
2022-08-07T14:47:52.909Z,32.20
2022-08-07T14:50:28.910Z,32.24
2022-08-07T14:53:09.771Z,32.25
2022-08-07T14:55:55.892Z,32.25
2022-08-07T14:58:34.331Z,32.25
2022-08-07T15:01:22.509Z,32.25
2022-08-07T15:03:53.658Z,32.28
2022-08-07T15:06:23.523Z,32.26
2022-08-07T15:08:55.769Z,32.16
2022-08-07T15:11:54.371Z,32.07
2022-08-07T15:14:22.316Z,31.98
2022-08-07T15:17:04.308Z,31.88
2022-08-07T15:25:39.728Z,31.28
2022-08-07T15:28:34.749Z,31.29
2022-08-07T15:31:06.710Z,31.25
2022-08-07T15:34:14.998Z,31.05
2022-08-07T15:37:03.683Z,30.88
2022-08-07T15:39:57.700Z,30.73
2022-08-07T15:45:55.761Z,30.34
2022-08-07T15:49:13.330Z,30.13
2022-08-07T15:54:34.141Z,29.84
2022-08-07T15:57:06.056Z,29.72
2022-08-07T15:59:44.166Z,29.68
2022-08-07T16:02:55.003Z,29.63
2022-08-07T16:05:31.229Z,29.63
2022-08-07T16:08:31.007Z,29.61
2022-08-07T16:11:26.781Z,29.53
2022-08-07T16:14:40.656Z,29.44
2022-08-07T16:18:02.526Z,29.27
2022-08-07T16:21:43.788Z,29.02
2022-08-07T16:24:33.723Z,28.82
2022-08-07T16:27:39.814Z,28.65
2022-08-07T16:30:30.081Z,28.37
2022-08-07T16:34:02.799Z,28.13
2022-08-07T16:37:00.148Z,27.91
2022-08-07T16:39:49.724Z,27.67
2022-08-07T16:42:36.712Z,27.52
2022-08-07T16:46:40.305Z,27.41
2022-08-07T16:50:13.849Z,27.27
2022-08-07T16:52:51.580Z,27.18
2022-08-07T16:55:08.513Z,27.07
2022-08-07T16:58:04.065Z,26.95
2022-08-07T17:00:44.703Z,26.88
2022-08-07T17:04:00.137Z,26.81
2022-08-07T17:07:17.931Z,26.73
2022-08-07T17:10:54.318Z,26.61
2022-08-07T17:14:17.511Z,26.49
2022-08-07T17:16:56.975Z,26.42
2022-08-07T17:20:00.513Z,26.37
2022-08-07T17:23:13.175Z,26.28
2022-08-07T17:26:22.526Z,26.21
2022-08-07T17:28:52.698Z,26.16
2022-08-07T17:32:02.863Z,26.12
2022-08-07T17:35:32.775Z,26.05
2022-08-07T17:42:04.401Z,25.94
2022-08-07T17:44:33.980Z,25.86
2022-08-07T17:47:41.863Z,25.75
2022-08-07T17:50:19.637Z,25.65
2022-08-07T17:53:09.196Z,25.58
2022-08-07T17:56:11.149Z,25.51
2022-08-07T17:59:16.916Z,25.44
2022-08-07T18:02:15.698Z,25.36
2022-08-07T18:05:21.687Z,25.29
2022-08-07T18:08:24.343Z,25.22
2022-08-07T18:12:16.319Z,25.18
2022-08-07T18:14:23.843Z,25.12
2022-08-07T18:17:00.249Z,25.07
2022-08-07T18:21:08.667Z,25.02
2022-08-07T18:22:57.904Z,24.98
2022-08-07T18:25:40.389Z,24.95
2022-08-07T18:32:08.564Z,24.90
2022-08-07T18:35:08.001Z,24.87
2022-08-07T18:38:56.013Z,24.84
2022-08-07T18:41:10.022Z,24.83
2022-08-07T18:44:00.547Z,24.82
2022-08-07T18:46:47.885Z,24.81
2022-08-07T18:50:30.245Z,24.80
2022-08-07T18:53:12.439Z,24.79
2022-08-07T18:56:30.896Z,24.78
2022-08-07T18:59:47.115Z,24.76
2022-08-07T19:02:32.333Z,24.76
2022-08-07T19:05:15.895Z,24.75
2022-08-07T19:08:06.629Z,24.73
2022-08-07T19:10:51.835Z,24.71
2022-08-07T19:13:37.794Z,24.69
2022-08-07T19:17:08.264Z,24.66
2022-08-07T19:20:29.817Z,24.64
2022-08-07T19:23:17.975Z,24.62
2022-08-07T19:26:23.263Z,24.62
2022-08-07T19:30:57.967Z,24.63
2022-08-07T19:32:10.347Z,24.63
2022-08-07T19:34:47.806Z,24.62
2022-08-07T19:37:22.241Z,24.62
2022-08-07T19:40:05.383Z,24.62
2022-08-07T19:42:45.751Z,24.60
2022-08-07T19:46:05.909Z,24.48
2022-08-07T19:48:25.442Z,24.22
2022-08-07T19:50:54.726Z,23.98
2022-08-07T19:54:31.809Z,23.80
2022-08-07T19:56:58.528Z,23.67
2022-08-07T19:59:41.417Z,23.57
2022-08-07T20:02:19.666Z,23.37
2022-08-07T20:04:56.103Z,23.26
2022-08-07T20:07:46.381Z,23.15
2022-08-07T20:10:35.781Z,23.04
2022-08-07T20:13:22.846Z,22.85
2022-08-07T20:15:57.764Z,22.73
2022-08-07T20:18:32.607Z,22.64
2022-08-07T20:21:22.027Z,22.57
2022-08-07T20:24:00.470Z,22.49
2022-08-07T20:26:44.939Z,22.43
2022-08-07T20:29:47.752Z,22.40
2022-08-07T20:32:22.710Z,22.39
2022-08-07T20:35:01.282Z,22.39
2022-08-07T20:37:55.790Z,22.39
2022-08-07T20:40:34.339Z,22.40
2022-08-07T20:43:09.317Z,22.41
2022-08-07T20:46:27.636Z,22.39
2022-08-07T20:48:34.455Z,22.36
2022-08-07T20:51:09.725Z,22.34
2022-08-07T20:54:04.335Z,22.30
2022-08-07T20:56:32.263Z,22.25
2022-08-07T20:59:05.333Z,22.22
2022-08-07T21:01:45.446Z,22.19
2022-08-07T21:04:22.557Z,22.16
2022-08-07T21:06:57.438Z,22.13
2022-08-07T21:09:51.857Z,22.11
2022-08-07T21:12:28.811Z,22.09
2022-08-07T21:15:00.915Z,22.07
2022-08-07T21:18:20.536Z,22.05
2022-08-07T21:20:30.400Z,22.03
2022-08-07T21:23:08.438Z,22.00
2022-08-07T21:26:03.229Z,21.98
2022-08-07T21:28:58.225Z,21.97
2022-08-07T21:32:46.869Z,21.96
2022-08-07T21:35:02.835Z,21.95
2022-08-07T21:37:31.642Z,21.93
2022-08-07T21:40:36.066Z,21.93
2022-08-07T21:43:55.213Z,21.92
2022-08-07T21:46:31.823Z,21.94
2022-08-07T21:49:01.350Z,21.95
2022-08-07T21:51:32.201Z,21.96
2022-08-07T21:54:06.825Z,21.96
2022-08-07T21:56:48.074Z,21.94
2022-08-07T22:00:02.877Z,21.92
2022-08-07T22:05:52.137Z,21.86
2022-08-07T22:08:24.828Z,21.81
2022-08-07T22:10:59.749Z,21.77
2022-08-07T22:13:51.261Z,21.75
2022-08-07T22:17:00.174Z,21.71
2022-08-07T22:20:23.771Z,21.65
2022-08-07T22:29:49.616Z,21.55
2022-08-07T22:33:01.223Z,21.52
2022-08-07T22:35:51.955Z,21.50
2022-08-07T22:38:26.551Z,21.49
2022-08-07T22:42:02.484Z,21.47
2022-08-07T22:44:22.809Z,21.45
2022-08-07T22:47:06.421Z,21.45
2022-08-07T22:50:08.338Z,21.48
2022-08-07T22:53:03.775Z,21.48
2022-08-07T22:55:54.627Z,21.47
2022-08-07T22:58:42.361Z,21.49
2022-08-07T23:01:49.724Z,21.49
2022-08-07T23:06:04.974Z,21.46
2022-08-07T23:08:31.481Z,21.43
2022-08-07T23:11:10.298Z,21.42
2022-08-07T23:14:16.072Z,21.43
2022-08-07T23:17:15.714Z,21.43
2022-08-07T23:20:40.269Z,21.41
2022-08-07T23:24:06.992Z,21.37
2022-08-07T23:26:25.326Z,21.31
2022-08-07T23:29:43.389Z,21.28
2022-08-07T23:34:18.693Z,21.28
2022-08-07T23:35:37.353Z,21.27
2022-08-07T23:39:22.159Z,21.26
2022-08-07T23:42:05.797Z,21.26
2022-08-07T23:44:46.617Z,21.25
2022-08-07T23:47:49.382Z,21.25
2022-08-07T23:50:29.778Z,21.25
2022-08-07T23:53:51.854Z,21.19
2022-08-07T23:56:37.869Z,21.15
